sensor_id;sensor_type;location;lat;lon;timestamp;P1;durP1;ratioP1;P2;durP2;ratioP2
15449;SDS011;7826;49.784;9.934;2023-05-10T00:00:03;5.30;;;4.80;;
15449;SDS011;7826;49.784;9.934;2023-05-10T00:02:30;5.97;;;4.80;;
15449;SDS011;7826;49.784;9.934;2023-05-10T00:04:56;6.70;;;5.13;;
15449;SDS011;7826;49.784;9.934;2023-05-10T00:07:23;8.13;;;4.97;;
15449;SDS011;7826;49.784;9.934;2023-05-10T00:09:49;5.93;;;5.30;;
15449;SDS011;7826;49.784;9.934;2023-05-10T00:12:15;5.40;;;4.90;;
15449;SDS011;7826;49.784;9.934;2023-05-10T00:14:41;8.03;;;5.37;;
15449;SDS011;7826;49.784;9.934;2023-05-10T00:17:08;5.13;;;4.63;;
15449;SDS011;7826;49.784;9.934;2023-05-10T00:19:34;5.50;;;5.00;;
15449;SDS011;7826;49.784;9.934;2023-05-10T00:22:00;6.60;;;4.63;;
15449;SDS011;7826;49.784;9.934;2023-05-10T00:24:27;5.33;;;4.80;;
15449;SDS011;7826;49.784;9.934;2023-05-10T00:26:53;6.47;;;5.03;;
15449;SDS011;7826;49.784;9.934;2023-05-10T00:29:19;7.63;;;5.17;;
15449;SDS011;7826;49.784;9.934;2023-05-10T00:31:46;5.77;;;4.77;;
15449;SDS011;7826;49.784;9.934;2023-05-10T00:34:12;6.87;;;4.93;;
15449;SDS011;7826;49.784;9.934;2023-05-10T00:36:38;8.23;;;5.23;;
15449;SDS011;7826;49.784;9.934;2023-05-10T00:39:04;6.17;;;5.10;;
15449;SDS011;7826;49.784;9.934;2023-05-10T00:41:31;7.77;;;5.03;;
15449;SDS011;7826;49.784;9.934;2023-05-10T00:43:58;6.03;;;4.97;;
15449;SDS011;7826;49.784;9.934;2023-05-10T00:46:24;5.60;;;5.03;;
15449;SDS011;7826;49.784;9.934;2023-05-10T00:48:51;6.77;;;5.40;;
15449;SDS011;7826;49.784;9.934;2023-05-10T00:51:18;7.37;;;4.97;;
15449;SDS011;7826;49.784;9.934;2023-05-10T00:53:47;6.20;;;5.30;;
15449;SDS011;7826;49.784;9.934;2023-05-10T00:56:15;7.37;;;5.37;;
15449;SDS011;7826;49.784;9.934;2023-05-10T00:58:42;6.70;;;5.10;;
15449;SDS011;7826;49.784;9.934;2023-05-10T01:01:09;11.67;;;5.60;;
15449;SDS011;7826;49.784;9.934;2023-05-10T01:03:36;6.10;;;5.03;;
15449;SDS011;7826;49.784;9.934;2023-05-10T01:06:02;5.80;;;5.00;;
15449;SDS011;7826;49.784;9.934;2023-05-10T01:08:29;6.50;;;5.40;;
15449;SDS011;7826;49.784;9.934;2023-05-10T01:10:55;6.10;;;5.50;;
15449;SDS011;7826;49.784;9.934;2023-05-10T01:13:31;6.23;;;5.63;;
15449;SDS011;7826;49.784;9.934;2023-05-10T01:16:00;6.37;;;5.77;;
15449;SDS011;7826;49.784;9.934;2023-05-10T01:18:29;5.67;;;5.10;;
15449;SDS011;7826;49.784;9.934;2023-05-10T01:34:32;7.50;;;5.30;;
15449;SDS011;7826;49.784;9.934;2023-05-10T01:37:11;6.07;;;5.30;;
15449;SDS011;7826;49.784;9.934;2023-05-10T01:42:18;6.67;;;5.30;;
15449;SDS011;7826;49.784;9.934;2023-05-10T01:47:30;7.23;;;5.60;;
15449;SDS011;7826;49.784;9.934;2023-05-10T01:50:02;7.20;;;5.53;;
15449;SDS011;7826;49.784;9.934;2023-05-10T01:52:32;6.57;;;5.43;;
15449;SDS011;7826;49.784;9.934;2023-05-10T01:55:02;6.40;;;5.40;;
15449;SDS011;7826;49.784;9.934;2023-05-10T01:57:32;6.27;;;5.30;;
15449;SDS011;7826;49.784;9.934;2023-05-10T02:00:01;6.70;;;5.67;;
15449;SDS011;7826;49.784;9.934;2023-05-10T02:02:29;5.83;;;5.13;;
15449;SDS011;7826;49.784;9.934;2023-05-10T02:04:58;8.33;;;5.87;;
15449;SDS011;7826;49.784;9.934;2023-05-10T02:07:26;7.10;;;5.83;;
15449;SDS011;7826;49.784;9.934;2023-05-10T02:09:54;8.03;;;5.40;;
15449;SDS011;7826;49.784;9.934;2023-05-10T02:12:22;7.70;;;5.70;;
15449;SDS011;7826;49.784;9.934;2023-05-10T02:14:49;5.87;;;5.23;;
15449;SDS011;7826;49.784;9.934;2023-05-10T02:17:18;6.37;;;5.67;;
15449;SDS011;7826;49.784;9.934;2023-05-10T02:19:45;7.20;;;5.37;;
15449;SDS011;7826;49.784;9.934;2023-05-10T02:22:13;8.63;;;5.80;;
15449;SDS011;7826;49.784;9.934;2023-05-10T02:24:41;9.87;;;5.97;;
15449;SDS011;7826;49.784;9.934;2023-05-10T02:27:08;8.47;;;4.93;;
15449;SDS011;7826;49.784;9.934;2023-05-10T02:29:35;6.77;;;6.07;;
15449;SDS011;7826;49.784;9.934;2023-05-10T02:32:02;5.80;;;5.20;;
15449;SDS011;7826;49.784;9.934;2023-05-10T02:34:29;7.03;;;5.33;;
15449;SDS011;7826;49.784;9.934;2023-05-10T02:36:57;6.40;;;5.67;;
15449;SDS011;7826;49.784;9.934;2023-05-10T02:39:24;6.83;;;5.70;;
15449;SDS011;7826;49.784;9.934;2023-05-10T02:41:54;8.00;;;5.97;;
15449;SDS011;7826;49.784;9.934;2023-05-10T02:44:21;8.90;;;5.90;;
15449;SDS011;7826;49.784;9.934;2023-05-10T02:46:49;6.83;;;6.13;;
15449;SDS011;7826;49.784;9.934;2023-05-10T02:49:15;7.20;;;5.90;;
15449;SDS011;7826;49.784;9.934;2023-05-10T02:51:44;7.10;;;5.60;;
15449;SDS011;7826;49.784;9.934;2023-05-10T02:54:18;6.67;;;5.80;;
15449;SDS011;7826;49.784;9.934;2023-05-10T02:56:50;10.00;;;5.87;;
15449;SDS011;7826;49.784;9.934;2023-05-10T02:59:19;7.50;;;5.43;;
15449;SDS011;7826;49.784;9.934;2023-05-10T03:01:45;7.13;;;6.27;;
15449;SDS011;7826;49.784;9.934;2023-05-10T03:04:12;6.80;;;6.07;;
15449;SDS011;7826;49.784;9.934;2023-05-10T03:06:39;6.73;;;6.03;;
15449;SDS011;7826;49.784;9.934;2023-05-10T03:09:05;9.50;;;5.70;;
15449;SDS011;7826;49.784;9.934;2023-05-10T03:16:38;9.13;;;5.80;;
15449;SDS011;7826;49.784;9.934;2023-05-10T03:19:30;11.07;;;6.83;;
15449;SDS011;7826;49.784;9.934;2023-05-10T03:22:04;8.17;;;6.13;;
15449;SDS011;7826;49.784;9.934;2023-05-10T03:24:36;9.23;;;6.50;;
15449;SDS011;7826;49.784;9.934;2023-05-10T03:27:05;9.70;;;5.60;;
15449;SDS011;7826;49.784;9.934;2023-05-10T03:29:32;8.37;;;6.33;;
15449;SDS011;7826;49.784;9.934;2023-05-10T03:31:59;7.00;;;6.03;;
15449;SDS011;7826;49.784;9.934;2023-05-10T03:34:25;7.30;;;6.23;;
15449;SDS011;7826;49.784;9.934;2023-05-10T03:36:52;7.37;;;5.93;;
15449;SDS011;7826;49.784;9.934;2023-05-10T03:39:18;8.40;;;6.07;;
15449;SDS011;7826;49.784;9.934;2023-05-10T03:41:44;7.10;;;5.90;;
15449;SDS011;7826;49.784;9.934;2023-05-10T03:44:11;10.47;;;6.60;;
15449;SDS011;7826;49.784;9.934;2023-05-10T03:46:37;8.93;;;6.53;;
15449;SDS011;7826;49.784;9.934;2023-05-10T03:49:03;6.80;;;5.90;;
15449;SDS011;7826;49.784;9.934;2023-05-10T03:51:29;7.10;;;6.03;;
15449;SDS011;7826;49.784;9.934;2023-05-10T03:53:56;10.60;;;6.83;;
15449;SDS011;7826;49.784;9.934;2023-05-10T03:56:22;8.33;;;5.90;;
15449;SDS011;7826;49.784;9.934;2023-05-10T03:58:49;6.90;;;6.20;;
15449;SDS011;7826;49.784;9.934;2023-05-10T04:01:15;9.47;;;6.20;;
15449;SDS011;7826;49.784;9.934;2023-05-10T04:03:41;7.60;;;6.77;;
15449;SDS011;7826;49.784;9.934;2023-05-10T04:06:07;8.37;;;6.23;;
15449;SDS011;7826;49.784;9.934;2023-05-10T04:08:37;7.47;;;6.67;;
15449;SDS011;7826;49.784;9.934;2023-05-10T04:11:06;8.13;;;6.33;;
15449;SDS011;7826;49.784;9.934;2023-05-10T04:13:33;9.43;;;6.30;;
15449;SDS011;7826;49.784;9.934;2023-05-10T04:16:00;6.83;;;6.13;;
15449;SDS011;7826;49.784;9.934;2023-05-10T04:18:27;9.83;;;6.60;;
15449;SDS011;7826;49.784;9.934;2023-05-10T04:20:53;8.07;;;6.30;;
15449;SDS011;7826;49.784;9.934;2023-05-10T04:23:19;7.20;;;5.97;;
15449;SDS011;7826;49.784;9.934;2023-05-10T04:25:46;7.83;;;6.10;;
15449;SDS011;7826;49.784;9.934;2023-05-10T04:28:12;8.83;;;5.90;;
15449;SDS011;7826;49.784;9.934;2023-05-10T04:30:38;7.40;;;6.13;;
15449;SDS011;7826;49.784;9.934;2023-05-10T04:33:06;7.57;;;6.07;;
15449;SDS011;7826;49.784;9.934;2023-05-10T04:35:32;8.40;;;6.07;;
15449;SDS011;7826;49.784;9.934;2023-05-10T04:37:59;6.87;;;6.17;;
15449;SDS011;7826;49.784;9.934;2023-05-10T04:40:25;6.47;;;5.87;;
15449;SDS011;7826;49.784;9.934;2023-05-10T04:42:52;10.00;;;7.20;;
15449;SDS011;7826;49.784;9.934;2023-05-10T04:45:18;6.90;;;6.20;;
15449;SDS011;7826;49.784;9.934;2023-05-10T04:47:44;9.23;;;6.33;;
15449;SDS011;7826;49.784;9.934;2023-05-10T04:50:10;7.63;;;6.10;;
15449;SDS011;7826;49.784;9.934;2023-05-10T04:52:37;7.83;;;5.87;;
15449;SDS011;7826;49.784;9.934;2023-05-10T04:55:03;7.00;;;6.03;;
15449;SDS011;7826;49.784;9.934;2023-05-10T04:57:30;6.43;;;5.83;;
15449;SDS011;7826;49.784;9.934;2023-05-10T04:59:56;8.10;;;6.07;;
15449;SDS011;7826;49.784;9.934;2023-05-10T05:02:22;8.43;;;6.10;;
15449;SDS011;7826;49.784;9.934;2023-05-10T05:04:49;8.27;;;5.63;;
15449;SDS011;7826;49.784;9.934;2023-05-10T05:07:15;6.90;;;5.90;;
15449;SDS011;7826;49.784;9.934;2023-05-10T05:09:41;8.07;;;5.37;;
15449;SDS011;7826;49.784;9.934;2023-05-10T05:12:08;9.13;;;5.90;;
15449;SDS011;7826;49.784;9.934;2023-05-10T05:14:39;6.83;;;5.63;;
15449;SDS011;7826;49.784;9.934;2023-05-10T05:17:06;8.77;;;5.83;;
15449;SDS011;7826;49.784;9.934;2023-05-10T05:19:33;7.47;;;5.80;;
15449;SDS011;7826;49.784;9.934;2023-05-10T05:21:59;7.93;;;5.53;;
15449;SDS011;7826;49.784;9.934;2023-05-10T05:24:26;8.63;;;6.13;;
15449;SDS011;7826;49.784;9.934;2023-05-10T05:26:52;6.23;;;5.47;;
15449;SDS011;7826;49.784;9.934;2023-05-10T05:29:18;9.53;;;6.33;;
15449;SDS011;7826;49.784;9.934;2023-05-10T05:31:44;6.00;;;5.40;;
15449;SDS011;7826;49.784;9.934;2023-05-10T05:34:10;5.60;;;5.10;;
15449;SDS011;7826;49.784;9.934;2023-05-10T05:36:37;8.63;;;5.70;;
15449;SDS011;7826;49.784;9.934;2023-05-10T05:39:06;5.90;;;5.10;;
15449;SDS011;7826;49.784;9.934;2023-05-10T05:41:33;10.97;;;5.60;;
15449;SDS011;7826;49.784;9.934;2023-05-10T05:43:59;6.13;;;5.47;;
15449;SDS011;7826;49.784;9.934;2023-05-10T05:46:25;6.10;;;5.40;;
15449;SDS011;7826;49.784;9.934;2023-05-10T05:48:51;6.80;;;5.50;;
15449;SDS011;7826;49.784;9.934;2023-05-10T05:51:18;7.93;;;5.50;;
15449;SDS011;7826;49.784;9.934;2023-05-10T05:53:44;6.10;;;5.40;;
15449;SDS011;7826;49.784;9.934;2023-05-10T05:56:10;8.47;;;5.23;;
15449;SDS011;7826;49.784;9.934;2023-05-10T05:58:37;8.20;;;5.50;;
15449;SDS011;7826;49.784;9.934;2023-05-10T06:01:03;6.20;;;5.40;;
15449;SDS011;7826;49.784;9.934;2023-05-10T06:03:29;7.30;;;5.43;;
15449;SDS011;7826;49.784;9.934;2023-05-10T06:05:56;6.47;;;4.77;;
15449;SDS011;7826;49.784;9.934;2023-05-10T06:08:22;5.33;;;4.83;;
15449;SDS011;7826;49.784;9.934;2023-05-10T06:10:48;7.90;;;5.30;;
15449;SDS011;7826;49.784;9.934;2023-05-10T06:13:14;6.63;;;5.43;;
15449;SDS011;7826;49.784;9.934;2023-05-10T06:15:41;7.17;;;5.17;;
15449;SDS011;7826;49.784;9.934;2023-05-10T06:18:07;6.33;;;5.33;;
15449;SDS011;7826;49.784;9.934;2023-05-10T06:20:33;7.47;;;4.53;;
15449;SDS011;7826;49.784;9.934;2023-05-10T06:23:00;5.10;;;4.60;;
15449;SDS011;7826;49.784;9.934;2023-05-10T06:25:26;7.50;;;5.40;;
15449;SDS011;7826;49.784;9.934;2023-05-10T06:27:52;6.23;;;4.90;;
15449;SDS011;7826;49.784;9.934;2023-05-10T06:30:23;5.60;;;5.10;;
15449;SDS011;7826;49.784;9.934;2023-05-10T06:32:52;5.83;;;4.97;;
15449;SDS011;7826;49.784;9.934;2023-05-10T06:35:19;5.00;;;4.23;;
15449;SDS011;7826;49.784;9.934;2023-05-10T06:37:45;4.97;;;4.27;;
15449;SDS011;7826;49.784;9.934;2023-05-10T06:40:12;6.27;;;4.00;;
15449;SDS011;7826;49.784;9.934;2023-05-10T06:42:38;10.23;;;4.50;;
15449;SDS011;7826;49.784;9.934;2023-05-10T06:45:05;6.40;;;4.30;;
15449;SDS011;7826;49.784;9.934;2023-05-10T06:47:32;4.03;;;3.73;;
15449;SDS011;7826;49.784;9.934;2023-05-10T06:49:58;4.77;;;4.27;;
15449;SDS011;7826;49.784;9.934;2023-05-10T06:52:24;4.83;;;4.13;;
15449;SDS011;7826;49.784;9.934;2023-05-10T06:54:50;6.57;;;3.90;;
15449;SDS011;7826;49.784;9.934;2023-05-10T06:57:17;3.80;;;3.43;;
15449;SDS011;7826;49.784;9.934;2023-05-10T06:59:43;4.30;;;3.63;;
15449;SDS011;7826;49.784;9.934;2023-05-10T07:02:09;4.37;;;3.63;;
15449;SDS011;7826;49.784;9.934;2023-05-10T07:04:36;5.70;;;3.70;;
15449;SDS011;7826;49.784;9.934;2023-05-10T07:07:02;4.40;;;4.00;;
15449;SDS011;7826;49.784;9.934;2023-05-10T07:09:28;4.70;;;3.63;;
15449;SDS011;7826;49.784;9.934;2023-05-10T07:11:55;6.23;;;3.87;;
15449;SDS011;7826;49.784;9.934;2023-05-10T07:14:22;4.43;;;3.50;;
15449;SDS011;7826;49.784;9.934;2023-05-10T07:16:49;5.23;;;3.47;;
15449;SDS011;7826;49.784;9.934;2023-05-10T07:19:15;4.77;;;3.60;;
15449;SDS011;7826;49.784;9.934;2023-05-10T07:21:41;5.33;;;3.83;;
15449;SDS011;7826;49.784;9.934;2023-05-10T07:24:09;4.30;;;3.70;;
15449;SDS011;7826;49.784;9.934;2023-05-10T07:26:35;4.60;;;3.30;;
15449;SDS011;7826;49.784;9.934;2023-05-10T07:29:01;3.90;;;3.60;;
15449;SDS011;7826;49.784;9.934;2023-05-10T07:31:27;3.80;;;3.50;;
15449;SDS011;7826;49.784;9.934;2023-05-10T07:33:54;3.93;;;3.53;;
15449;SDS011;7826;49.784;9.934;2023-05-10T07:36:20;3.80;;;3.43;;
15449;SDS011;7826;49.784;9.934;2023-05-10T07:38:46;4.00;;;3.40;;
15449;SDS011;7826;49.784;9.934;2023-05-10T07:41:12;5.70;;;3.53;;
15449;SDS011;7826;49.784;9.934;2023-05-10T07:43:39;3.93;;;3.53;;
15449;SDS011;7826;49.784;9.934;2023-05-10T07:46:05;4.57;;;3.50;;
15449;SDS011;7826;49.784;9.934;2023-05-10T07:48:32;5.03;;;3.67;;
15449;SDS011;7826;49.784;9.934;2023-05-10T07:50:58;3.40;;;3.10;;
15449;SDS011;7826;49.784;9.934;2023-05-10T07:53:25;3.60;;;3.30;;
15449;SDS011;7826;49.784;9.934;2023-05-10T07:55:57;4.20;;;3.60;;
15449;SDS011;7826;49.784;9.934;2023-05-10T07:58:24;3.57;;;3.00;;
15449;SDS011;7826;49.784;9.934;2023-05-10T08:00:50;3.47;;;3.20;;
15449;SDS011;7826;49.784;9.934;2023-05-10T08:03:17;5.80;;;3.33;;
15449;SDS011;7826;49.784;9.934;2023-05-10T08:05:43;3.40;;;3.10;;
15449;SDS011;7826;49.784;9.934;2023-05-10T08:08:09;3.70;;;3.27;;
15449;SDS011;7826;49.784;9.934;2023-05-10T08:10:35;4.20;;;3.80;;
15449;SDS011;7826;49.784;9.934;2023-05-10T08:13:02;3.60;;;3.30;;
15449;SDS011;7826;49.784;9.934;2023-05-10T08:15:28;3.30;;;3.00;;
15449;SDS011;7826;49.784;9.934;2023-05-10T08:17:54;3.77;;;3.33;;
15449;SDS011;7826;49.784;9.934;2023-05-10T08:20:20;5.33;;;2.90;;
15449;SDS011;7826;49.784;9.934;2023-05-10T08:22:46;3.50;;;3.20;;
15449;SDS011;7826;49.784;9.934;2023-05-10T08:25:13;3.30;;;3.00;;
15449;SDS011;7826;49.784;9.934;2023-05-10T08:27:39;3.30;;;3.00;;
15449;SDS011;7826;49.784;9.934;2023-05-10T08:30:05;3.37;;;2.87;;
15449;SDS011;7826;49.784;9.934;2023-05-10T08:32:32;4.43;;;3.17;;
15449;SDS011;7826;49.784;9.934;2023-05-10T08:35:00;3.50;;;3.20;;
15449;SDS011;7826;49.784;9.934;2023-05-10T08:37:29;3.90;;;3.10;;
15449;SDS011;7826;49.784;9.934;2023-05-10T08:39:55;3.73;;;3.17;;
15449;SDS011;7826;49.784;9.934;2023-05-10T08:42:22;3.80;;;3.50;;
15449;SDS011;7826;49.784;9.934;2023-05-10T08:44:51;3.67;;;3.30;;
15449;SDS011;7826;49.784;9.934;2023-05-10T08:47:19;3.50;;;3.20;;
15449;SDS011;7826;49.784;9.934;2023-05-10T08:49:46;7.00;;;3.20;;
15449;SDS011;7826;49.784;9.934;2023-05-10T08:52:17;4.00;;;3.30;;
15449;SDS011;7826;49.784;9.934;2023-05-10T08:54:43;4.93;;;3.27;;
15449;SDS011;7826;49.784;9.934;2023-05-10T08:57:10;5.93;;;3.50;;
15449;SDS011;7826;49.784;9.934;2023-05-10T08:59:36;3.97;;;3.60;;
15449;SDS011;7826;49.784;9.934;2023-05-10T09:02:05;3.97;;;3.10;;
15449;SDS011;7826;49.784;9.934;2023-05-10T09:04:31;4.93;;;3.00;;
15449;SDS011;7826;49.784;9.934;2023-05-10T09:06:58;3.37;;;3.07;;
15449;SDS011;7826;49.784;9.934;2023-05-10T09:09:24;3.43;;;3.00;;
15449;SDS011;7826;49.784;9.934;2023-05-10T09:11:51;4.93;;;3.27;;
15449;SDS011;7826;49.784;9.934;2023-05-10T09:14:18;3.40;;;3.10;;
15449;SDS011;7826;49.784;9.934;2023-05-10T09:16:46;3.37;;;3.10;;
15449;SDS011;7826;49.784;9.934;2023-05-10T09:19:12;3.60;;;3.30;;
15449;SDS011;7826;49.784;9.934;2023-05-10T09:21:39;3.47;;;3.17;;
15449;SDS011;7826;49.784;9.934;2023-05-10T09:24:06;4.23;;;3.30;;
15449;SDS011;7826;49.784;9.934;2023-05-10T09:26:33;4.00;;;3.70;;
15449;SDS011;7826;49.784;9.934;2023-05-10T09:29:01;3.47;;;3.03;;
15449;SDS011;7826;49.784;9.934;2023-05-10T09:31:48;4.90;;;3.40;;
15449;SDS011;7826;49.784;9.934;2023-05-10T09:34:17;5.90;;;3.50;;
15449;SDS011;7826;49.784;9.934;2023-05-10T09:36:52;5.27;;;3.73;;
15449;SDS011;7826;49.784;9.934;2023-05-10T09:39:19;4.00;;;3.33;;
15449;SDS011;7826;49.784;9.934;2023-05-10T09:41:46;6.47;;;3.33;;
15449;SDS011;7826;49.784;9.934;2023-05-10T09:44:18;3.40;;;3.10;;
15449;SDS011;7826;49.784;9.934;2023-05-10T09:46:51;3.47;;;3.10;;
15449;SDS011;7826;49.784;9.934;2023-05-10T09:49:41;4.33;;;3.20;;
15449;SDS011;7826;49.784;9.934;2023-05-10T09:52:13;3.37;;;3.10;;
15449;SDS011;7826;49.784;9.934;2023-05-10T09:54:42;3.40;;;3.13;;
15449;SDS011;7826;49.784;9.934;2023-05-10T09:57:21;5.93;;;2.90;;
15449;SDS011;7826;49.784;9.934;2023-05-10T09:59:52;3.13;;;2.80;;
15449;SDS011;7826;49.784;9.934;2023-05-10T10:02:28;3.83;;;3.07;;
15449;SDS011;7826;49.784;9.934;2023-05-10T10:05:02;3.30;;;3.00;;
15449;SDS011;7826;49.784;9.934;2023-05-10T10:07:41;3.77;;;3.00;;
15449;SDS011;7826;49.784;9.934;2023-05-10T10:10:19;4.43;;;3.27;;
15449;SDS011;7826;49.784;9.934;2023-05-10T10:12:45;4.37;;;3.00;;
15449;SDS011;7826;49.784;9.934;2023-05-10T10:15:11;3.20;;;3.00;;
15449;SDS011;7826;49.784;9.934;2023-05-10T10:17:38;3.10;;;2.90;;
15449;SDS011;7826;49.784;9.934;2023-05-10T10:20:07;3.57;;;3.27;;
15449;SDS011;7826;49.784;9.934;2023-05-10T10:22:49;3.23;;;2.93;;
15449;SDS011;7826;49.784;9.934;2023-05-10T10:25:16;6.37;;;3.00;;
15449;SDS011;7826;49.784;9.934;2023-05-10T10:36:05;3.00;;;2.80;;
15449;SDS011;7826;49.784;9.934;2023-05-10T10:39:14;3.67;;;2.80;;
15449;SDS011;7826;49.784;9.934;2023-05-10T10:41:33;4.73;;;2.80;;
15449;SDS011;7826;49.784;9.934;2023-05-10T10:47:20;2.97;;;2.40;;
15449;SDS011;7826;49.784;9.934;2023-05-10T10:50:03;3.43;;;3.10;;
15449;SDS011;7826;49.784;9.934;2023-05-10T10:52:35;6.10;;;2.97;;
15449;SDS011;7826;49.784;9.934;2023-05-10T10:57:33;4.33;;;2.87;;
15449;SDS011;7826;49.784;9.934;2023-05-10T11:00:18;4.60;;;2.83;;
15449;SDS011;7826;49.784;9.934;2023-05-10T11:05:24;4.90;;;2.93;;
15449;SDS011;7826;49.784;9.934;2023-05-10T11:08:06;3.97;;;3.13;;
15449;SDS011;7826;49.784;9.934;2023-05-10T11:10:35;4.80;;;3.23;;
15449;SDS011;7826;49.784;9.934;2023-05-10T11:13:03;2.67;;;2.47;;
15449;SDS011;7826;49.784;9.934;2023-05-10T11:15:37;3.30;;;2.63;;
15449;SDS011;7826;49.784;9.934;2023-05-10T11:18:17;4.47;;;2.70;;
15449;SDS011;7826;49.784;9.934;2023-05-10T11:20:49;3.27;;;2.97;;
15449;SDS011;7826;49.784;9.934;2023-05-10T11:23:16;3.07;;;2.30;;
15449;SDS011;7826;49.784;9.934;2023-05-10T11:25:47;3.30;;;3.00;;
15449;SDS011;7826;49.784;9.934;2023-05-10T11:28:14;5.00;;;3.20;;
15449;SDS011;7826;49.784;9.934;2023-05-10T11:30:41;3.10;;;2.90;;
15449;SDS011;7826;49.784;9.934;2023-05-10T11:33:09;3.40;;;3.10;;
15449;SDS011;7826;49.784;9.934;2023-05-10T11:35:46;3.90;;;2.70;;
15449;SDS011;7826;49.784;9.934;2023-05-10T11:38:35;3.13;;;2.73;;
15449;SDS011;7826;49.784;9.934;2023-05-10T11:48:35;4.30;;;2.63;;
15449;SDS011;7826;49.784;9.934;2023-05-10T11:51:26;3.30;;;2.97;;
15449;SDS011;7826;49.784;9.934;2023-05-10T11:58:54;3.43;;;3.13;;
15449;SDS011;7826;49.784;9.934;2023-05-10T12:01:42;3.20;;;2.70;;
15449;SDS011;7826;49.784;9.934;2023-05-10T12:12:00;3.60;;;2.90;;
15449;SDS011;7826;49.784;9.934;2023-05-10T12:14:37;3.57;;;3.00;;
15449;SDS011;7826;49.784;9.934;2023-05-10T12:17:15;3.10;;;2.73;;
15449;SDS011;7826;49.784;9.934;2023-05-10T12:19:41;3.13;;;2.83;;
15449;SDS011;7826;49.784;9.934;2023-05-10T12:22:12;3.73;;;2.83;;
15449;SDS011;7826;49.784;9.934;2023-05-10T12:25:08;7.43;;;3.17;;
15449;SDS011;7826;49.784;9.934;2023-05-10T12:27:54;2.87;;;2.67;;
15449;SDS011;7826;49.784;9.934;2023-05-10T12:30:22;2.87;;;2.67;;
15449;SDS011;7826;49.784;9.934;2023-05-10T12:32:49;3.17;;;2.87;;
15449;SDS011;7826;49.784;9.934;2023-05-10T12:35:23;2.87;;;2.67;;
15449;SDS011;7826;49.784;9.934;2023-05-10T12:41:00;3.13;;;2.87;;
15449;SDS011;7826;49.784;9.934;2023-05-10T12:43:28;3.57;;;3.00;;
15449;SDS011;7826;49.784;9.934;2023-05-10T12:45:55;3.97;;;2.63;;
15449;SDS011;7826;49.784;9.934;2023-05-10T12:48:21;3.17;;;2.97;;
15449;SDS011;7826;49.784;9.934;2023-05-10T12:50:47;3.20;;;2.90;;
15449;SDS011;7826;49.784;9.934;2023-05-10T12:53:14;3.10;;;2.90;;
15449;SDS011;7826;49.784;9.934;2023-05-10T12:55:41;3.20;;;2.90;;
15449;SDS011;7826;49.784;9.934;2023-05-10T12:58:08;3.60;;;2.80;;
15449;SDS011;7826;49.784;9.934;2023-05-10T13:00:34;3.93;;;3.07;;
15449;SDS011;7826;49.784;9.934;2023-05-10T13:03:00;7.13;;;3.07;;
15449;SDS011;7826;49.784;9.934;2023-05-10T13:05:27;3.50;;;3.20;;
15449;SDS011;7826;49.784;9.934;2023-05-10T13:07:53;3.33;;;2.80;;
15449;SDS011;7826;49.784;9.934;2023-05-10T13:10:19;3.03;;;2.83;;
15449;SDS011;7826;49.784;9.934;2023-05-10T13:12:45;3.70;;;2.80;;
15449;SDS011;7826;49.784;9.934;2023-05-10T13:15:12;5.93;;;3.00;;
15449;SDS011;7826;49.784;9.934;2023-05-10T13:17:38;3.37;;;3.17;;
15449;SDS011;7826;49.784;9.934;2023-05-10T13:20:06;3.23;;;3.00;;
15449;SDS011;7826;49.784;9.934;2023-05-10T13:22:32;3.70;;;3.30;;
15449;SDS011;7826;49.784;9.934;2023-05-10T13:24:59;3.43;;;3.13;;
15449;SDS011;7826;49.784;9.934;2023-05-10T13:27:25;3.93;;;3.27;;
15449;SDS011;7826;49.784;9.934;2023-05-10T13:29:51;5.50;;;3.20;;
15449;SDS011;7826;49.784;9.934;2023-05-10T13:32:18;3.47;;;3.17;;
15449;SDS011;7826;49.784;9.934;2023-05-10T13:34:45;3.50;;;3.20;;
15449;SDS011;7826;49.784;9.934;2023-05-10T13:37:11;3.60;;;2.90;;
15449;SDS011;7826;49.784;9.934;2023-05-10T13:39:38;3.60;;;3.33;;
15449;SDS011;7826;49.784;9.934;2023-05-10T13:42:04;4.03;;;3.27;;
15449;SDS011;7826;49.784;9.934;2023-05-10T13:44:31;3.67;;;3.30;;
15449;SDS011;7826;49.784;9.934;2023-05-10T13:46:59;3.60;;;3.30;;
15449;SDS011;7826;49.784;9.934;2023-05-10T13:49:25;5.47;;;3.20;;
15449;SDS011;7826;49.784;9.934;2023-05-10T13:51:52;4.03;;;3.10;;
15449;SDS011;7826;49.784;9.934;2023-05-10T13:54:18;5.30;;;3.40;;
15449;SDS011;7826;49.784;9.934;2023-05-10T13:56:45;3.57;;;3.20;;
15449;SDS011;7826;49.784;9.934;2023-05-10T13:59:13;3.50;;;3.20;;
15449;SDS011;7826;49.784;9.934;2023-05-10T14:01:40;3.27;;;2.97;;
15449;SDS011;7826;49.784;9.934;2023-05-10T14:04:06;3.87;;;3.57;;
15449;SDS011;7826;49.784;9.934;2023-05-10T14:06:36;3.83;;;3.47;;
15449;SDS011;7826;49.784;9.934;2023-05-10T14:09:02;4.13;;;3.50;;
15449;SDS011;7826;49.784;9.934;2023-05-10T14:11:29;3.73;;;3.40;;
15449;SDS011;7826;49.784;9.934;2023-05-10T14:13:55;5.37;;;2.90;;
15449;SDS011;7826;49.784;9.934;2023-05-10T14:16:21;3.23;;;2.93;;
15449;SDS011;7826;49.784;9.934;2023-05-10T14:18:47;4.83;;;3.10;;
15449;SDS011;7826;49.784;9.934;2023-05-10T14:21:13;7.00;;;3.63;;
15449;SDS011;7826;49.784;9.934;2023-05-10T14:23:40;3.43;;;3.13;;
15449;SDS011;7826;49.784;9.934;2023-05-10T14:26:07;3.60;;;3.30;;
15449;SDS011;7826;49.784;9.934;2023-05-10T14:28:33;3.40;;;2.90;;
15449;SDS011;7826;49.784;9.934;2023-05-10T14:30:59;3.53;;;2.90;;
15449;SDS011;7826;49.784;9.934;2023-05-10T14:33:25;3.63;;;3.30;;
15449;SDS011;7826;49.784;9.934;2023-05-10T14:35:53;4.17;;;3.77;;
15449;SDS011;7826;49.784;9.934;2023-05-10T14:38:22;6.67;;;4.10;;
15449;SDS011;7826;49.784;9.934;2023-05-10T14:40:49;4.77;;;4.37;;
15449;SDS011;7826;49.784;9.934;2023-05-10T14:43:15;4.80;;;4.40;;
15449;SDS011;7826;49.784;9.934;2023-05-10T14:45:41;4.80;;;4.30;;
15449;SDS011;7826;49.784;9.934;2023-05-10T14:48:07;7.03;;;4.57;;
15449;SDS011;7826;49.784;9.934;2023-05-10T14:50:37;5.17;;;4.67;;
15449;SDS011;7826;49.784;9.934;2023-05-10T14:53:05;5.40;;;4.80;;
15449;SDS011;7826;49.784;9.934;2023-05-10T14:55:31;5.23;;;4.80;;
15449;SDS011;7826;49.784;9.934;2023-05-10T14:57:58;6.10;;;5.00;;
15449;SDS011;7826;49.784;9.934;2023-05-10T15:00:24;6.03;;;5.40;;
15449;SDS011;7826;49.784;9.934;2023-05-10T15:02:50;6.53;;;5.40;;
15449;SDS011;7826;49.784;9.934;2023-05-10T15:05:17;5.00;;;4.60;;
15449;SDS011;7826;49.784;9.934;2023-05-10T15:07:43;8.13;;;5.80;;
15449;SDS011;7826;49.784;9.934;2023-05-10T15:10:12;6.20;;;5.63;;
15449;SDS011;7826;49.784;9.934;2023-05-10T15:12:42;8.27;;;5.57;;
15449;SDS011;7826;49.784;9.934;2023-05-10T15:15:14;6.80;;;5.63;;
15449;SDS011;7826;49.784;9.934;2023-05-10T15:17:40;9.70;;;5.23;;
15449;SDS011;7826;49.784;9.934;2023-05-10T15:20:07;6.93;;;5.57;;
15449;SDS011;7826;49.784;9.934;2023-05-10T15:22:42;5.83;;;4.60;;
15449;SDS011;7826;49.784;9.934;2023-05-10T15:25:09;6.23;;;4.87;;
15449;SDS011;7826;49.784;9.934;2023-05-10T15:27:35;5.90;;;5.17;;
15449;SDS011;7826;49.784;9.934;2023-05-10T15:30:01;15.50;;;6.00;;
15449;SDS011;7826;49.784;9.934;2023-05-10T15:32:31;6.33;;;4.87;;
15449;SDS011;7826;49.784;9.934;2023-05-10T15:34:58;7.70;;;5.20;;
15449;SDS011;7826;49.784;9.934;2023-05-10T15:37:25;4.90;;;4.50;;
15449;SDS011;7826;49.784;9.934;2023-05-10T15:39:51;5.37;;;4.87;;
15449;SDS011;7826;49.784;9.934;2023-05-10T15:42:44;6.23;;;4.80;;
15449;SDS011;7826;49.784;9.934;2023-05-10T15:49:10;5.40;;;4.33;;
15449;SDS011;7826;49.784;9.934;2023-05-10T16:19:42;5.20;;;4.57;;
15449;SDS011;7826;49.784;9.934;2023-05-10T16:22:08;4.53;;;4.17;;
15449;SDS011;7826;49.784;9.934;2023-05-10T16:24:34;4.40;;;4.00;;
15449;SDS011;7826;49.784;9.934;2023-05-10T16:27:08;5.13;;;4.10;;
15449;SDS011;7826;49.784;9.934;2023-05-10T16:29:35;5.40;;;4.13;;
15449;SDS011;7826;49.784;9.934;2023-05-10T16:32:01;5.37;;;4.27;;
15449;SDS011;7826;49.784;9.934;2023-05-10T16:34:28;4.73;;;4.23;;
15449;SDS011;7826;49.784;9.934;2023-05-10T16:37:04;4.90;;;4.10;;
15449;SDS011;7826;49.784;9.934;2023-05-10T16:39:34;4.73;;;3.90;;
15449;SDS011;7826;49.784;9.934;2023-05-10T16:42:03;4.07;;;3.67;;